createdAt,value
2022-09-23T00:02:23.464Z,1.58
2022-09-23T00:04:56.895Z,1.98
2022-09-23T00:07:30.543Z,1.90
2022-09-23T00:10:06.270Z,2.25
2022-09-23T00:12:39.793Z,1.80
2022-09-23T00:15:13.272Z,1.92
2022-09-23T00:17:47.528Z,1.70
2022-09-23T00:20:21.173Z,1.65
2022-09-23T00:22:54.735Z,1.77
2022-09-23T00:25:30.680Z,1.98
2022-09-23T00:28:04.508Z,1.67
2022-09-23T00:30:38.013Z,1.60
2022-09-23T00:33:11.501Z,1.40
2022-09-23T00:35:44.976Z,2.17
2022-09-23T00:38:18.503Z,1.75
2022-09-23T00:40:53.318Z,2.05
2022-09-23T00:43:39.187Z,1.70
2022-09-23T00:46:16.708Z,2.55
2022-09-23T00:48:57.510Z,2.13
2022-09-23T00:51:35.945Z,1.98
2022-09-23T00:54:10.612Z,2.78
2022-09-23T00:56:46.085Z,1.75
2022-09-23T00:59:20.797Z,1.80
2022-09-23T01:01:57.116Z,2.10
2022-09-23T01:04:31.913Z,1.48
2022-09-23T01:07:05.720Z,1.85
2022-09-23T01:09:39.352Z,2.40
2022-09-23T01:12:25.330Z,1.77
2022-09-23T01:15:10.269Z,1.73
2022-09-23T01:17:52.434Z,1.77
2022-09-23T01:21:04.641Z,2.25
2022-09-23T01:24:11.524Z,2.55
2022-09-23T01:27:06.966Z,1.58
2022-09-23T01:30:04.846Z,2.03
2022-09-23T01:32:50.475Z,2.08
2022-09-23T01:35:31.567Z,1.95
2022-09-23T01:38:18.531Z,2.38
2022-09-23T01:41:00.058Z,1.60
2022-09-23T01:43:41.235Z,1.95
2022-09-23T01:46:19.919Z,1.85
2022-09-23T01:48:59.233Z,2.65
2022-09-23T01:51:36.911Z,2.47
2022-09-23T01:54:16.926Z,2.20
2022-09-23T01:56:55.239Z,2.40
2022-09-23T01:59:35.885Z,1.90
2022-09-23T02:02:15.434Z,1.67
2022-09-23T02:04:56.982Z,1.92
2022-09-23T02:07:37.522Z,2.60
2022-09-23T02:10:17.821Z,2.30
2022-09-23T02:12:57.410Z,1.83
2022-09-23T02:15:36.430Z,1.75
2022-09-23T02:18:15.224Z,2.22
2022-09-23T02:20:53.937Z,1.48
2022-09-23T02:23:33.069Z,2.70
2022-09-23T02:26:13.241Z,2.05
2022-09-23T02:28:52.793Z,1.55
2022-09-23T02:31:37.404Z,1.80
2022-09-23T02:34:21.988Z,1.85
2022-09-23T02:37:09.340Z,2.30
2022-09-23T02:39:55.481Z,1.92
2022-09-23T02:42:40.564Z,2.15
2022-09-23T02:45:14.511Z,1.75
2022-09-23T02:47:54.584Z,2.15
2022-09-23T02:50:28.331Z,1.92
2022-09-23T02:53:03.383Z,1.40
2022-09-23T02:55:36.853Z,1.80
2022-09-23T02:58:13.500Z,1.95
2022-09-23T03:00:59.034Z,1.42
2022-09-23T03:03:42.299Z,1.85
2022-09-23T03:06:25.646Z,1.92
2022-09-23T03:09:06.852Z,1.65
2022-09-23T03:11:45.576Z,1.92
2022-09-23T03:14:28.124Z,1.42
2022-09-23T03:17:05.351Z,2.00
2022-09-23T03:19:48.456Z,1.73
2022-09-23T03:22:27.661Z,2.35
2022-09-23T03:25:07.180Z,1.60
2022-09-23T03:27:42.613Z,2.38
2022-09-23T03:30:17.728Z,2.10
2022-09-23T03:32:52.136Z,2.05
2022-09-23T03:35:28.642Z,2.15
2022-09-23T03:38:09.617Z,1.88
2022-09-23T03:40:50.988Z,2.05
2022-09-23T03:43:24.734Z,1.67
2022-09-23T03:46:01.483Z,2.17
2022-09-23T03:48:35.163Z,2.20
2022-09-23T03:51:22.340Z,2.03
2022-09-23T03:53:55.877Z,2.55
2022-09-23T03:56:30.725Z,1.98
2022-09-23T03:59:04.366Z,2.13
2022-09-23T04:01:37.808Z,2.22
2022-09-23T04:04:11.386Z,1.88
2022-09-23T04:06:44.893Z,2.10
2022-09-23T04:09:18.470Z,1.63
2022-09-23T04:11:53.907Z,2.00
2022-09-23T04:14:27.747Z,2.58
2022-09-23T04:17:02.849Z,2.30
2022-09-23T04:19:36.724Z,1.70
2022-09-23T04:22:10.934Z,2.40
2022-09-23T04:24:44.534Z,2.40
2022-09-23T04:27:19.624Z,2.17
2022-09-23T04:29:53.120Z,2.10
2022-09-23T04:32:26.534Z,1.58
2022-09-23T04:35:00.154Z,2.08
2022-09-23T04:37:33.652Z,2.20
2022-09-23T04:40:08.701Z,2.30
2022-09-23T04:42:43.583Z,2.00
2022-09-23T04:45:17.339Z,1.77
2022-09-23T04:47:50.769Z,2.08
2022-09-23T04:50:24.369Z,1.80
2022-09-23T04:52:57.786Z,2.40
2022-09-23T04:55:31.792Z,1.83
2022-09-23T04:58:07.635Z,3.03
2022-09-23T05:00:41.255Z,2.50
2022-09-23T05:03:15.152Z,9.25
2022-09-23T05:05:48.670Z,6.05
2022-09-23T05:08:22.206Z,5.82
2022-09-23T05:10:58.588Z,2.58
2022-09-23T05:13:33.822Z,1.98
2022-09-23T05:16:10.099Z,3.22
2022-09-23T05:18:45.186Z,2.83
2022-09-23T05:21:20.282Z,2.45
2022-09-23T05:23:55.618Z,2.90
2022-09-23T05:26:31.241Z,3.00
2022-09-23T05:29:06.189Z,2.15
2022-09-23T05:31:39.943Z,2.50
2022-09-23T05:34:13.637Z,2.78
2022-09-23T05:36:47.083Z,2.00
2022-09-23T05:39:20.679Z,3.13
2022-09-23T05:41:55.611Z,3.33
2022-09-23T05:44:30.497Z,3.28
2022-09-23T05:47:04.002Z,2.63
2022-09-23T05:49:58.020Z,2.80
2022-09-23T05:52:31.575Z,2.92
2022-09-23T05:55:05.555Z,3.13
2022-09-23T05:57:39.055Z,2.88
2022-09-23T06:00:15.515Z,3.20
2022-09-23T06:02:49.895Z,2.72
2022-09-23T06:05:23.455Z,2.53
2022-09-23T06:07:57.507Z,2.65
2022-09-23T06:10:30.987Z,2.88
2022-09-23T06:13:04.426Z,2.90
2022-09-23T06:15:39.883Z,3.45
2022-09-23T06:18:13.849Z,5.18
2022-09-23T06:20:48.176Z,3.72
2022-09-23T06:23:24.923Z,3.45
2022-09-23T06:26:02.315Z,2.83
2022-09-23T06:28:37.593Z,2.67
2022-09-23T06:31:15.419Z,2.47
2022-09-23T06:33:55.719Z,2.70
2022-09-23T06:36:42.465Z,2.83
2022-09-23T06:39:17.838Z,2.15
2022-09-23T06:41:51.387Z,3.92
2022-09-23T06:44:25.010Z,2.20
2022-09-23T06:47:00.264Z,3.03
2022-09-23T06:49:34.051Z,3.22
2022-09-23T06:52:07.594Z,3.20
2022-09-23T06:54:41.121Z,3.75
2022-09-23T06:57:14.578Z,2.65
2022-09-23T06:59:48.211Z,3.60
2022-09-23T07:02:23.143Z,3.15
2022-09-23T07:04:57.526Z,3.45
2022-09-23T07:07:32.439Z,3.75
2022-09-23T07:10:07.009Z,2.70
2022-09-23T07:12:40.486Z,3.45
2022-09-23T07:15:15.527Z,2.70
2022-09-23T07:17:50.553Z,3.08
2022-09-23T07:20:24.398Z,2.92
2022-09-23T07:22:57.855Z,3.65
2022-09-23T07:25:34.230Z,2.85
2022-09-23T07:28:08.166Z,3.05
2022-09-23T07:30:56.273Z,3.00
2022-09-23T07:33:34.616Z,3.28
2022-09-23T07:36:10.505Z,3.33
2022-09-23T07:38:45.710Z,2.90
2022-09-23T07:41:20.689Z,2.80
2022-09-23T07:43:58.987Z,3.25
2022-09-23T07:46:34.323Z,3.95
2022-09-23T07:49:09.605Z,3.85
2022-09-23T07:51:46.222Z,4.25
2022-09-23T07:54:20.244Z,2.92
2022-09-23T07:56:53.685Z,4.28
2022-09-23T07:59:27.423Z,3.90
2022-09-23T08:02:00.951Z,3.83
2022-09-23T08:04:36.068Z,3.80
2022-09-23T08:07:10.190Z,3.50
2022-09-23T08:09:45.765Z,3.55
2022-09-23T08:12:22.352Z,3.88
2022-09-23T08:14:55.833Z,3.78
2022-09-23T08:17:30.898Z,4.22
2022-09-23T08:20:06.807Z,3.83
2022-09-23T08:22:40.248Z,3.10
2022-09-23T08:25:14.212Z,4.05
2022-09-23T08:27:47.664Z,3.90
2022-09-23T08:30:21.314Z,3.30
2022-09-23T08:32:54.994Z,3.45
2022-09-23T08:35:30.789Z,3.65
2022-09-23T08:38:04.624Z,2.97
2022-09-23T08:40:41.451Z,3.22
2022-09-23T08:43:23.186Z,3.70
2022-09-23T08:46:01.534Z,3.67
2022-09-23T08:48:39.266Z,3.88
2022-09-23T08:51:18.699Z,3.15
2022-09-23T08:53:52.361Z,3.58
2022-09-23T08:56:26.500Z,3.45
2022-09-23T08:59:08.697Z,2.83
2022-09-23T09:01:45.714Z,2.10
2022-09-23T09:04:24.401Z,2.67
2022-09-23T09:07:31.814Z,3.42
2022-09-23T09:10:05.360Z,2.38
2022-09-23T09:12:43.534Z,2.85
2022-09-23T09:15:20.619Z,3.00
2022-09-23T09:18:02.540Z,2.83
2022-09-23T09:20:41.525Z,3.17
2022-09-23T09:23:23.526Z,2.20
2022-09-23T09:26:01.507Z,2.43
2022-09-23T09:28:40.111Z,2.53
2022-09-23T09:31:24.682Z,2.22
2022-09-23T09:34:03.753Z,1.50
2022-09-23T09:36:43.841Z,1.90
2022-09-23T09:39:21.812Z,1.95
2022-09-23T09:42:00.204Z,2.05
2022-09-23T09:44:40.096Z,1.75
2022-09-23T09:47:28.554Z,1.63
2022-09-23T09:50:08.013Z,1.50
2022-09-23T09:52:43.102Z,1.02
2022-09-23T09:55:28.601Z,1.60
2022-09-23T09:58:05.933Z,1.60
2022-09-23T10:00:44.085Z,1.90
2022-09-23T10:03:42.559Z,1.90
2022-09-23T10:06:24.828Z,1.63
2022-09-23T10:09:14.914Z,1.88
2022-09-23T10:12:11.901Z,1.55
2022-09-23T10:14:46.416Z,1.65
2022-09-23T10:17:22.942Z,1.73
2022-09-23T10:20:00.998Z,1.67
2022-09-23T10:22:39.088Z,1.25
2022-09-23T10:25:20.783Z,1.40
2022-09-23T10:27:55.793Z,1.50
2022-09-23T10:30:29.766Z,1.60
2022-09-23T10:33:03.618Z,1.83
2022-09-23T10:35:37.096Z,1.85
2022-09-23T10:38:11.791Z,1.60
2022-09-23T10:41:02.950Z,1.50
2022-09-23T10:44:02.853Z,1.20
2022-09-23T10:46:42.345Z,1.10
2022-09-23T10:49:55.338Z,1.63
2022-09-23T10:52:50.216Z,1.65
2022-09-23T10:55:41.863Z,1.63
2022-09-23T10:58:46.502Z,1.63
2022-09-23T11:01:32.126Z,1.42
2022-09-23T11:04:27.355Z,1.65
2022-09-23T11:07:14.159Z,1.85
2022-09-23T11:10:28.854Z,1.95
2022-09-23T11:13:12.512Z,1.90
2022-09-23T11:15:55.875Z,1.65
2022-09-23T11:18:52.424Z,1.45
2022-09-23T11:21:41.737Z,1.92
2022-09-23T11:25:01.947Z,2.30
2022-09-23T11:27:53.730Z,2.53
2022-09-23T11:30:37.343Z,1.88
2022-09-23T11:33:23.493Z,1.83
2022-09-23T11:36:04.058Z,1.83
2022-09-23T11:38:41.476Z,1.95
2022-09-23T11:41:19.562Z,2.17
2022-09-23T11:43:59.978Z,2.17
2022-09-23T11:46:40.079Z,1.95
2022-09-23T11:49:17.659Z,2.60
2022-09-23T11:52:04.091Z,2.17
2022-09-23T11:54:46.368Z,2.00
2022-09-23T11:57:34.754Z,2.35
2022-09-23T12:00:19.079Z,2.42
2022-09-23T12:03:06.060Z,1.98
2022-09-23T12:05:42.911Z,1.92
2022-09-23T12:08:26.775Z,1.70
2022-09-23T12:11:09.187Z,1.95
2022-09-23T12:13:50.644Z,1.75
2022-09-23T12:17:01.590Z,1.10
2022-09-23T12:20:05.727Z,1.85
2022-09-23T12:22:53.008Z,1.50
2022-09-23T12:25:37.103Z,1.55
2022-09-23T12:28:16.565Z,1.63
2022-09-23T12:30:53.018Z,1.30
2022-09-23T12:33:30.040Z,1.88
2022-09-23T12:36:05.867Z,2.00
2022-09-23T12:38:41.985Z,1.67
2022-09-23T12:41:27.786Z,1.70
2022-09-23T12:44:14.474Z,1.73
2022-09-23T12:46:48.450Z,2.38
2022-09-23T12:49:26.524Z,2.38
2022-09-23T12:52:26.324Z,2.15
2022-09-23T12:55:23.238Z,2.10
2022-09-23T12:57:58.075Z,2.28
2022-09-23T13:00:34.265Z,1.92
2022-09-23T13:03:31.515Z,2.17
2022-09-23T13:06:27.158Z,2.38
2022-09-23T13:09:02.671Z,2.35
2022-09-23T13:11:41.487Z,1.98
2022-09-23T13:14:25.293Z,2.50
2022-09-23T13:17:01.481Z,1.90
2022-09-23T13:19:47.624Z,1.67
2022-09-23T13:22:42.585Z,1.77
2022-09-23T13:25:21.447Z,2.53
2022-09-23T13:27:57.056Z,2.50
2022-09-23T13:30:31.913Z,2.30
2022-09-23T13:33:10.985Z,2.40
2022-09-23T13:35:50.713Z,2.47
2022-09-23T13:38:26.365Z,2.38
2022-09-23T13:41:03.475Z,2.60
2022-09-23T13:43:41.539Z,1.70
2022-09-23T13:46:20.232Z,2.10
2022-09-23T13:48:55.760Z,2.30
2022-09-23T13:51:31.877Z,2.00
2022-09-23T13:54:06.660Z,1.88
2022-09-23T13:56:50.434Z,2.22
2022-09-23T13:59:29.487Z,1.63
2022-09-23T14:02:12.431Z,2.08
2022-09-23T14:04:46.239Z,1.95
2022-09-23T14:07:20.807Z,2.20
2022-09-23T14:09:56.648Z,2.42
2022-09-23T14:12:30.396Z,2.63
2022-09-23T14:15:03.923Z,2.42
2022-09-23T14:17:39.103Z,2.85
2022-09-23T14:20:16.247Z,2.20
2022-09-23T14:22:49.790Z,2.33
2022-09-23T14:25:23.258Z,2.30
2022-09-23T14:28:00.365Z,2.22
2022-09-23T14:30:34.207Z,2.03
2022-09-23T14:33:11.860Z,2.28
2022-09-23T14:35:48.176Z,2.00
2022-09-23T14:38:42.595Z,2.17
2022-09-23T14:41:23.940Z,1.95
2022-09-23T14:43:59.462Z,2.63
2022-09-23T14:46:35.079Z,2.08
2022-09-23T14:49:18.488Z,1.65
2022-09-23T14:51:53.944Z,2.08
2022-09-23T14:54:41.535Z,2.08
2022-09-23T14:57:29.381Z,2.25
2022-09-23T15:00:10.370Z,2.22
2022-09-23T15:02:46.241Z,1.90
2022-09-23T15:05:23.135Z,5.82
2022-09-23T15:07:59.491Z,2.63
2022-09-23T15:10:37.815Z,1.95
2022-09-23T15:13:17.974Z,1.95
2022-09-23T15:15:54.010Z,1.90
2022-09-23T15:18:31.246Z,2.17
2022-09-23T15:21:11.753Z,2.20
2022-09-23T15:23:47.804Z,2.10
2022-09-23T15:26:24.309Z,2.03
2022-09-23T15:29:00.191Z,1.65
2022-09-23T15:31:34.028Z,2.33
2022-09-23T15:34:12.124Z,1.48
2022-09-23T15:36:47.170Z,2.58
2022-09-23T15:39:20.700Z,2.38
2022-09-23T15:41:54.344Z,2.13
2022-09-23T15:44:31.016Z,2.38
2022-09-23T15:47:04.986Z,2.33
2022-09-23T15:49:40.158Z,1.92
2022-09-23T15:52:16.421Z,2.65
2022-09-23T15:54:49.959Z,2.42
2022-09-23T15:57:25.987Z,2.28
2022-09-23T15:59:59.506Z,2.60
2022-09-23T16:02:33.430Z,2.45
2022-09-23T16:05:07.840Z,2.55
2022-09-23T16:07:42.791Z,3.33
2022-09-23T16:10:16.511Z,3.40
2022-09-23T16:12:50.924Z,3.65
2022-09-23T16:15:25.710Z,3.50
2022-09-23T16:17:59.371Z,2.80
2022-09-23T16:20:35.096Z,2.83
2022-09-23T16:23:19.478Z,3.78
2022-09-23T16:25:52.970Z,3.05
2022-09-23T16:28:26.524Z,3.20
2022-09-23T16:30:59.968Z,4.10
2022-09-23T16:33:33.485Z,4.10
2022-09-23T16:36:10.752Z,3.17
2022-09-23T16:38:45.644Z,4.40
2022-09-23T16:41:19.139Z,7.55
2022-09-23T16:43:53.635Z,9.13
2022-09-23T16:46:27.275Z,11.48
2022-09-23T16:49:01.538Z,11.98
2022-09-23T16:51:38.661Z,9.40
2022-09-23T16:54:16.391Z,7.57
2022-09-23T16:56:50.521Z,7.50
2022-09-23T16:59:43.948Z,10.73
2022-09-23T17:02:35.009Z,7.93
2022-09-23T17:05:09.227Z,5.13
2022-09-23T17:07:42.680Z,5.93
2022-09-23T17:10:20.333Z,5.72
2022-09-23T17:12:54.539Z,6.43
2022-09-23T17:15:28.042Z,7.72
2022-09-23T17:18:01.832Z,8.43
2022-09-23T17:20:35.918Z,7.57
2022-09-23T17:23:09.386Z,7.47
2022-09-23T17:25:48.912Z,6.43
2022-09-23T17:28:23.637Z,6.85
2022-09-23T17:31:01.143Z,6.25
2022-09-23T17:33:37.764Z,6.78
2022-09-23T17:36:12.975Z,6.93
2022-09-23T17:38:48.231Z,7.38
2022-09-23T17:41:23.424Z,8.10
2022-09-23T17:43:58.686Z,8.52
2022-09-23T17:46:32.522Z,7.88
2022-09-23T17:49:08.498Z,9.20
2022-09-23T17:51:42.276Z,7.13
2022-09-23T17:54:16.091Z,8.73
2022-09-23T17:56:50.975Z,9.05
2022-09-23T17:59:24.403Z,10.13
2022-09-23T18:01:57.956Z,11.82
2022-09-23T18:04:31.692Z,9.93
2022-09-23T18:07:05.235Z,11.38
2022-09-23T18:09:38.737Z,10.75
2022-09-23T18:12:14.811Z,12.80
2022-09-23T18:14:49.280Z,14.63
2022-09-23T18:17:22.748Z,13.32
2022-09-23T18:19:56.200Z,17.35
2022-09-23T18:22:29.809Z,14.80
2022-09-23T18:25:17.497Z,16.50
2022-09-23T18:27:58.640Z,18.67
2022-09-23T18:30:33.606Z,15.50
2022-09-23T18:33:07.260Z,13.00
2022-09-23T18:35:40.800Z,12.13
2022-09-23T18:38:14.619Z,12.35
2022-09-23T18:40:54.297Z,12.45
2022-09-23T18:43:37.231Z,12.07
2022-09-23T18:46:15.975Z,10.15
2022-09-23T18:49:07.365Z,9.77
2022-09-23T18:51:50.460Z,8.43
2022-09-23T18:54:25.003Z,8.73
2022-09-23T18:56:59.364Z,8.95
2022-09-23T18:59:34.277Z,8.75
2022-09-23T19:02:07.939Z,8.98
2022-09-23T19:04:41.501Z,10.35
2022-09-23T19:07:16.018Z,9.70
2022-09-23T19:09:49.910Z,9.40
2022-09-23T19:12:23.407Z,9.10
2022-09-23T19:14:58.356Z,8.45
2022-09-23T19:17:32.107Z,9.05
2022-09-23T19:20:06.390Z,9.02
2022-09-23T19:22:40.707Z,8.95
2022-09-23T19:25:14.221Z,9.23
2022-09-23T19:27:49.005Z,9.52
2022-09-23T19:30:25.409Z,9.88
2022-09-23T19:32:59.461Z,10.32
2022-09-23T19:35:33.383Z,11.27
2022-09-23T19:38:06.941Z,11.43
2022-09-23T19:40:40.584Z,12.32
2022-09-23T19:43:14.390Z,10.73
2022-09-23T19:45:56.177Z,12.40
2022-09-23T19:48:29.734Z,14.00
2022-09-23T19:51:03.402Z,15.23
2022-09-23T19:53:38.062Z,12.68
2022-09-23T19:56:13.162Z,12.25
2022-09-23T19:58:48.288Z,13.50
2022-09-23T20:01:24.242Z,13.18
2022-09-23T20:03:57.872Z,12.40
2022-09-23T20:06:32.620Z,15.55
2022-09-23T20:09:06.776Z,14.88
2022-09-23T20:11:42.901Z,13.18
2022-09-23T20:14:17.335Z,14.60
2022-09-23T20:16:53.154Z,19.50
2022-09-23T20:19:26.787Z,22.08
2022-09-23T20:22:17.820Z,22.85
2022-09-23T20:24:51.380Z,22.17
2022-09-23T20:27:24.814Z,24.02
2022-09-23T20:29:58.862Z,19.55
2022-09-23T20:32:33.755Z,21.35
2022-09-23T20:35:08.107Z,21.05
2022-09-23T20:37:41.644Z,20.90
2022-09-23T20:40:15.220Z,17.42
2022-09-23T20:42:49.688Z,21.73
2022-09-23T20:45:23.157Z,21.88
2022-09-23T20:47:59.337Z,20.95
2022-09-23T20:50:32.952Z,22.50
2022-09-23T20:53:06.595Z,19.67
2022-09-23T20:55:49.295Z,18.60
2022-09-23T21:01:04.803Z,21.40
2022-09-23T21:03:41.248Z,21.60
2022-09-23T21:06:16.105Z,22.58
2022-09-23T21:08:49.680Z,17.95
2022-09-23T21:11:23.642Z,16.73
2022-09-23T21:13:58.742Z,15.40
2022-09-23T21:16:32.338Z,19.83
2022-09-23T21:19:08.551Z,14.38
2022-09-23T21:21:42.019Z,19.73
2022-09-23T21:24:53.212Z,19.67
2022-09-23T21:27:08.920Z,27.80
2022-09-23T21:29:42.365Z,20.35
2022-09-23T21:32:15.798Z,35.33
2022-09-23T21:34:50.697Z,23.27
2022-09-23T21:37:25.515Z,15.48
2022-09-23T21:40:18.455Z,24.50
2022-09-23T21:42:52.637Z,16.00
2022-09-23T21:45:26.251Z,15.00
2022-09-23T21:48:01.196Z,13.90
2022-09-23T21:50:37.444Z,12.68
2022-09-23T21:53:11.020Z,10.60
2022-09-23T21:55:44.493Z,11.32
2022-09-23T21:58:17.991Z,11.82
2022-09-23T22:00:51.558Z,10.45
2022-09-23T22:03:25.291Z,11.60
2022-09-23T22:06:09.174Z,12.98
2022-09-23T22:08:44.569Z,12.25
2022-09-23T22:11:33.366Z,12.45
2022-09-23T22:14:09.094Z,12.30
2022-09-23T22:16:43.295Z,10.30
2022-09-23T22:19:16.832Z,13.07
2022-09-23T22:21:52.713Z,13.05
2022-09-23T22:24:26.188Z,13.15
2022-09-23T22:26:59.734Z,11.43
2022-09-23T22:29:50.719Z,11.90
2022-09-23T22:32:43.745Z,8.23
2022-09-23T22:35:18.799Z,9.38
2022-09-23T22:37:53.776Z,8.43
2022-09-23T22:40:27.393Z,8.57
2022-09-23T22:43:02.159Z,8.65
2022-09-23T22:45:37.630Z,9.75
2022-09-23T22:48:11.046Z,9.35
2022-09-23T22:50:45.822Z,9.43
2022-09-23T22:53:20.666Z,10.20
2022-09-23T22:56:01.271Z,9.13
2022-09-23T22:58:34.731Z,9.98
2022-09-23T23:01:11.397Z,11.18
2022-09-23T23:03:45.783Z,8.50
2022-09-23T23:06:19.719Z,8.15
2022-09-23T23:08:59.593Z,7.72
2022-09-23T23:11:33.071Z,15.52
2022-09-23T23:14:06.708Z,6.10
2022-09-23T23:16:40.899Z,8.25
2022-09-23T23:19:17.533Z,6.63
2022-09-23T23:21:51.984Z,7.55
2022-09-23T23:24:26.951Z,9.85
2022-09-23T23:27:00.528Z,6.45
2022-09-23T23:29:34.516Z,9.88
2022-09-23T23:32:09.805Z,9.00
2022-09-23T23:34:43.416Z,6.05
2022-09-23T23:37:20.788Z,5.13
2022-09-23T23:39:56.008Z,5.93
2022-09-23T23:42:31.432Z,6.30
2022-09-23T23:45:05.582Z,8.20
2022-09-23T23:47:40.042Z,6.28
2022-09-23T23:50:13.579Z,5.88
2022-09-23T23:52:47.011Z,5.53
2022-09-23T23:55:21.948Z,4.47
2022-09-23T23:57:55.747Z,4.75
